Time;durP1;ratioP1;P1;durP2;ratioP2;P2;SDS_P1;SDS_P2;PMS_P1;PMS_P2;Temp;Humidity;BMP_temperature;BMP_pressure;BME280_temperature;BME280_humidity;BME280_pressure;Samples;Min_cycle;Max_cycle;Signal;HPM_P1;HPM_P2
2022/06/27 00:01:56;;;;;;;3.70;2.50;;;;;;;19.83;67.61;99285.91;4360701;32;33970;-78
2022/06/27 00:04:24;;;;;;;3.85;2.80;;;;;;;19.78;68.19;99286.13;4363558;32;35875;-78
2022/06/27 00:06:53;;;;;;;3.85;2.62;;;;;;;19.67;68.33;99288.41;4362038;32;34389;-78
2022/06/27 00:09:21;;;;;;;6.70;2.87;;;;;;;19.32;70.22;99291.84;4362126;32;34561;-78
2022/06/27 00:11:49;;;;;;;5.93;2.62;;;;;;;19.59;69.51;99278.25;4361883;32;33559;-78
2022/06/27 00:14:17;;;;;;;3.33;2.55;;;;;;;20.45;66.01;99280.97;4363198;32;34960;-78
2022/06/27 00:16:44;;;;;;;5.57;3.62;;;;;;;20.37;65.82;99277.91;4361738;32;34485;-78
2022/06/27 00:19:17;;;;;;;6.40;2.50;;;;;;;19.87;67.19;99283.03;4363438;32;33774;-78
2022/06/27 00:21:45;;;;;;;3.83;2.72;;;;;;;19.81;67.77;99285.97;4361903;32;33921;-79
2022/06/27 00:24:12;;;;;;;4.28;2.85;;;;;;;20.10;66.16;99290.72;4363572;32;35957;-77
2022/06/27 00:26:41;;;;;;;5.00;2.75;;;;;;;20.08;66.19;99290.81;4357323;32;34533;-78
2022/06/27 00:29:08;;;;;;;4.35;2.62;;;;;;;20.33;65.55;99284.25;4361625;32;33497;-78
2022/06/27 00:31:36;;;;;;;4.55;2.47;;;;;;;20.19;65.87;99272.62;4361803;32;33926;-78
2022/06/27 00:34:04;;;;;;;5.15;2.62;;;;;;;20.06;66.46;99272.38;4361044;32;35044;-78
2022/06/27 00:36:33;;;;;;;4.07;2.72;;;;;;;19.84;67.49;99272.62;4360789;32;35448;-78
2022/06/27 00:39:00;;;;;;;5.07;2.90;;;;;;;19.56;68.38;99272.25;4360297;32;33554;-78
2022/06/27 00:41:29;;;;;;;4.18;3.15;;;;;;;19.31;69.96;99273.44;4355945;32;32624;-78
2022/06/27 00:43:56;;;;;;;3.97;2.75;;;;;;;19.72;68.25;99278.47;4363475;32;35734;-78
2022/06/27 00:46:24;;;;;;;4.35;2.62;;;;;;;19.65;68.59;99277.91;4361564;32;35365;-78
2022/06/27 00:48:52;;;;;;;4.80;3.12;;;;;;;19.74;68.28;99281.94;4359220;32;33634;-88
2022/06/27 00:51:20;;;;;;;4.40;2.75;;;;;;;19.39;69.24;99280.97;4350542;32;33993;-78
2022/06/27 00:53:48;;;;;;;3.30;2.40;;;;;;;19.76;68.28;99280.06;4349604;32;34428;-82
2022/06/27 00:56:17;;;;;;;3.42;2.62;;;;;;;19.12;70.48;99281.34;4361701;32;33309;-78
2022/06/27 00:58:45;;;;;;;3.55;2.60;;;;;;;19.73;67.94;99290.78;4360560;32;33701;-78
2022/06/27 01:01:13;;;;;;;5.25;2.80;;;;;;;19.08;70.26;99293.84;4360457;32;33187;-78
2022/06/27 01:03:41;;;;;;;6.07;3.40;;;;;;;18.94;71.83;99294.47;4361769;32;35846;-78
2022/06/27 01:06:09;;;;;;;3.97;2.55;;;;;;;19.46;69.22;99295.59;4360347;32;34671;-78
2022/06/27 01:08:37;;;;;;;4.90;2.72;;;;;;;19.39;69.31;99289.75;4361968;32;33771;-78
2022/06/27 01:11:06;;;;;;;4.15;2.80;;;;;;;19.48;69.21;99288.44;4360325;32;33661;-78
2022/06/27 01:13:34;;;;;;;4.25;3.20;;;;;;;19.44;68.88;99295.66;4362043;32;35252;-78
2022/06/27 01:16:02;;;;;;;5.07;3.33;;;;;;;19.05;70.28;99296.62;4359861;32;32516;-78
2022/06/27 01:18:30;;;;;;;4.40;3.22;;;;;;;18.90;71.44;99295.56;4361526;32;33824;-78
2022/06/27 01:20:59;;;;;;;6.32;3.53;;;;;;;19.20;71.07;99288.91;4359776;32;34029;-78
2022/06/27 01:23:27;;;;;;;4.25;3.00;;;;;;;18.91;71.89;99286.69;4363064;32;35137;-78
2022/06/27 01:25:56;;;;;;;9.23;3.47;;;;;;;18.79;73.42;99291.66;4347991;32;35116;-88
2022/06/27 01:28:24;;;;;;;4.93;3.45;;;;;;;18.84;72.50;99287.91;4333054;33;34574;-78
2022/06/27 01:30:52;;;;;;;6.12;3.70;;;;;;;19.51;70.08;99289.16;4344149;33;34047;-82
2022/06/27 01:33:21;;;;;;;5.95;3.80;;;;;;;19.17;71.40;99286.44;4372234;32;34921;-78
2022/06/27 01:36:41;;;;;;;5.72;4.10;;;;;;;19.26;71.64;99280.72;4362743;32;34570;-79
2022/06/27 01:38:37;;;;;;;10.52;3.80;;;;;;;19.40;71.01;99287.97;4338080;32;33690;-78
2022/06/27 01:41:05;;;;;;;5.90;4.00;;;;;;;19.66;70.11;99287.56;4361060;32;33941;-77
2022/06/27 01:43:34;;;;;;;5.43;4.03;;;;;;;20.13;67.93;99294.06;4361311;32;35867;-88
2022/06/27 01:46:02;;;;;;;5.55;3.72;;;;;;;19.33;71.56;99284.78;4341612;32;33786;-88
2022/06/27 01:48:30;;;;;;;6.07;3.90;;;;;;;19.20;72.27;99281.00;4333003;33;34477;-78
2022/06/27 01:50:58;;;;;;;5.20;3.60;;;;;;;19.31;71.39;99278.72;4332771;33;34004;-84
2022/06/27 01:53:28;;;;;;;6.25;3.87;;;;;;;20.01;69.05;99294.69;4357807;32;33453;-78
2022/06/27 01:55:56;;;;;;;8.15;4.45;;;;;;;19.13;71.81;99288.38;4361107;32;34502;-85
2022/06/27 01:58:24;;;;;;;5.87;3.60;;;;;;;20.00;68.71;99293.00;4361078;32;35309;-78
2022/06/27 02:00:52;;;;;;;4.85;3.60;;;;;;;19.69;69.69;99278.63;4354607;32;33932;-88
2022/06/27 02:03:23;;;;;;;9.60;4.97;;;;;;;20.02;68.37;99280.56;4346703;33;35146;-77
2022/06/27 02:05:54;;;;;;;5.72;4.00;;;;;;;19.99;68.58;99286.84;4345399;33;34387;-78
2022/06/27 02:08:22;;;;;;;6.72;4.00;;;;;;;19.04;72.20;99286.13;4347601;33;33564;-78
2022/06/27 02:10:50;;;;;;;8.82;3.67;;;;;;;19.55;70.09;99286.38;4346239;33;33847;-78
2022/06/27 02:13:18;;;;;;;7.18;3.83;;;;;;;19.84;68.82;99292.91;4347216;33;35218;-78
2022/06/27 02:16:21;;;;;;;6.70;3.90;;;;;;;19.79;68.85;99292.28;4346157;33;34569;-78
2022/06/27 02:18:50;;;;;;;11.05;4.05;;;;;;;19.96;68.61;99296.72;4322352;33;33671;-78
2022/06/27 02:21:21;;;;;;;5.40;4.22;;;;;;;19.50;69.81;99295.38;4358505;32;33529;-78
2022/06/27 02:23:49;;;;;;;7.00;4.40;;;;;;;19.95;68.39;99303.78;4350928;32;34750;-79
2022/06/27 02:26:19;;;;;;;5.93;4.18;;;;;;;19.65;69.11;99303.50;4360361;32;35232;-78
2022/06/27 02:28:51;;;;;;;6.90;3.70;;;;;;;20.13;67.58;99306.44;4362817;32;34407;-79
2022/06/27 02:31:20;;;;;;;5.85;4.30;;;;;;;20.27;67.27;99304.78;4361603;32;33174;-79
2022/06/27 02:33:49;;;;;;;5.65;3.90;;;;;;;20.28;66.49;99305.69;4364147;32;34967;-80
2022/06/27 02:36:20;;;;;;;9.70;4.15;;;;;;;20.45;66.08;99300.37;4362397;32;34485;-79
2022/06/27 02:38:51;;;;;;;5.50;3.80;;;;;;;20.59;65.41;99301.41;4362827;32;34486;-80
2022/06/27 02:41:20;;;;;;;6.12;3.83;;;;;;;20.60;65.78;99304.00;4360130;32;34770;-80
2022/06/27 02:43:52;;;;;;;5.03;3.85;;;;;;;20.51;65.74;99308.94;4364050;32;36015;-79
2022/06/27 02:46:20;;;;;;;7.78;4.05;;;;;;;20.44;66.41;99303.94;4361858;32;34384;-78
2022/06/27 02:48:50;;;;;;;6.22;3.42;;;;;;;20.78;65.03;99303.97;4337075;32;33732;-78
2022/06/27 02:51:23;;;;;;;8.45;4.15;;;;;;;20.72;64.84;99310.47;4360801;32;33914;-78
2022/06/27 02:54:11;;;;;;;6.97;4.28;;;;;;;20.48;66.25;99315.22;4361489;32;35955;-78
2022/06/27 02:56:44;;;;;;;7.68;4.07;;;;;;;21.09;63.70;99315.56;4361098;32;35200;-78
2022/06/27 02:59:17;;;;;;;9.52;4.37;;;;;;;21.43;61.95;99319.00;4362785;32;33644;-77
2022/06/27 03:01:48;;;;;;;6.50;4.22;;;;;;;21.12;63.61;99320.69;4362110;32;32999;-78
2022/06/27 03:04:19;;;;;;;6.55;4.85;;;;;;;21.26;62.78;99328.72;4362730;32;35275;-78
2022/06/27 03:06:49;;;;;;;5.75;3.58;;;;;;;21.62;61.71;99325.03;4362727;32;32585;-79
2022/06/27 03:09:19;;;;;;;8.57;3.78;;;;;;;21.73;61.63;99327.06;4362917;32;33356;-77
2022/06/27 03:11:48;;;;;;;8.40;4.53;;;;;;;21.86;61.19;99332.50;4362372;32;34686;-78
2022/06/27 03:14:16;;;;;;;6.03;3.95;;;;;;;21.91;61.07;99335.75;4359356;32;35851;-78
2022/06/27 03:16:44;;;;;;;6.45;3.95;;;;;;;22.12;60.51;99334.50;4362328;32;35348;-77
2022/06/27 03:19:12;;;;;;;5.80;3.90;;;;;;;22.19;60.07;99323.53;4360834;32;33700;-77
2022/06/27 03:21:41;;;;;;;6.37;4.03;;;;;;;21.77;61.58;99341.84;4361156;32;33886;-78
2022/06/27 03:24:09;;;;;;;10.80;3.83;;;;;;;22.18;60.59;99345.69;4363772;32;35184;-77
2022/06/27 03:26:41;;;;;;;7.55;4.30;;;;;;;22.26;60.08;99346.09;4362344;32;34183;-82
2022/06/27 03:29:09;;;;;;;6.10;4.03;;;;;;;22.42;59.73;99338.13;4361308;32;34484;-77
2022/06/27 03:31:37;;;;;;;8.73;3.97;;;;;;;22.39;59.55;99335.63;4347926;32;32485;-81
2022/06/27 03:34:05;;;;;;;6.60;3.60;;;;;;;22.27;60.13;99338.09;4363657;32;36073;-80
2022/06/27 03:36:35;;;;;;;5.93;3.80;;;;;;;22.33;60.22;99342.16;4360493;32;34578;-85
2022/06/27 03:39:04;;;;;;;6.30;3.47;;;;;;;22.67;59.22;99342.78;4362412;32;33643;-84
2022/06/27 03:41:32;;;;;;;7.78;4.37;;;;;;;23.12;57.94;99348.03;4362271;32;34030;-79
2022/06/27 03:44:00;;;;;;;10.32;4.85;;;;;;;22.63;59.81;99354.56;4362393;32;35150;-79
2022/06/27 03:46:28;;;;;;;7.70;4.03;;;;;;;22.77;60.77;99343.94;4361892;32;34605;-79
2022/06/27 03:51:45;;;;;;;5.55;3.80;;;;;;;22.84;58.95;99347.94;4362185;32;34099;-79
2022/06/27 03:54:12;;;;;;;6.75;3.70;;;;;;;22.95;59.90;99357.03;4363556;32;35669;-79
2022/06/27 03:56:41;;;;;;;4.62;3.50;;;;;;;23.04;60.16;99359.97;4348559;32;34537;-80
2022/06/27 03:59:09;;;;;;;5.97;4.28;;;;;;;23.33;58.24;99353.81;4348997;33;33694;-86
2022/06/27 04:01:38;;;;;;;6.60;4.05;;;;;;;23.16;58.29;99352.22;4359948;32;33919;-79
2022/06/27 04:04:07;;;;;;;5.80;3.85;;;;;;;23.64;56.50;99352.69;4363641;32;35036;-84
2022/06/27 04:06:35;;;;;;;11.00;4.60;;;;;;;23.27;58.50;99363.03;4360404;32;34547;-83
2022/06/27 04:09:10;;;;;;;11.85;4.30;;;;;;;23.80;56.22;99366.72;4362449;32;33884;-80
2022/06/27 04:11:39;;;;;;;6.78;3.60;;;;;;;23.79;56.94;99367.66;4361973;32;33921;-84
2022/06/27 04:14:10;;;;;;;5.10;3.90;;;;;;;23.47;56.81;99367.06;4361888;32;34580;-78
2022/06/27 04:16:42;;;;;;;7.00;3.72;;;;;;;23.74;56.98;99363.63;4360949;32;35256;-79
2022/06/27 04:19:15;;;;;;;8.60;4.85;;;;;;;23.66;56.38;99362.31;4363737;32;33697;-79
2022/06/27 04:21:44;;;;;;;6.05;3.33;;;;;;;23.73;55.78;99367.22;4360675;32;33912;-80
2022/06/27 04:24:12;;;;;;;7.95;3.42;;;;;;;24.29;55.87;99381.28;4363593;32;34925;-80
2022/06/27 04:26:40;;;;;;;6.22;3.60;;;;;;;24.30;54.70;99383.00;4360641;32;34707;-80
2022/06/27 04:29:09;;;;;;;8.05;4.07;;;;;;;24.44;54.23;99378.53;4363230;32;33644;-79
2022/06/27 04:31:36;;;;;;;6.68;3.33;;;;;;;24.82;52.51;99380.44;4362030;32;34686;-79
2022/06/27 04:34:04;;;;;;;5.55;3.20;;;;;;;24.67;53.77;99384.97;4361910;32;35257;-80
2022/06/27 04:36:33;;;;;;;6.07;3.37;;;;;;;24.72;53.96;99378.38;4360814;32;34621;-79
2022/06/27 04:39:01;;;;;;;6.75;3.78;;;;;;;24.84;52.71;99381.16;4363578;32;34195;-80
2022/06/27 04:41:30;;;;;;;6.30;3.47;;;;;;;24.63;55.11;99384.34;4361797;32;33938;-82
2022/06/27 04:43:59;;;;;;;5.82;3.40;;;;;;;25.34;52.16;99382.97;4362786;32;35889;-86
2022/06/27 04:46:27;;;;;;;4.62;3.15;;;;;;;24.96;52.78;99380.31;4361580;32;34568;-79
2022/06/27 04:48:56;;;;;;;8.23;3.37;;;;;;;24.98;53.53;99381.91;4352044;32;33805;-79
2022/06/27 04:51:24;;;;;;;5.20;3.22;;;;;;;25.23;54.01;99387.31;4361365;32;33939;-78
2022/06/27 04:53:53;;;;;;;5.40;3.42;;;;;;;25.62;51.20;99378.28;4361840;32;35024;-82
2022/06/27 04:56:21;;;;;;;5.32;3.10;;;;;;;25.49;51.57;99381.00;4360386;32;35235;-78
2022/06/27 04:58:50;;;;;;;4.60;3.10;;;;;;;26.11;50.03;99384.53;4363126;32;34457;-78
2022/06/27 05:01:18;;;;;;;6.28;2.87;;;;;;;26.04;49.39;99383.31;4360375;32;33845;-79
2022/06/27 05:03:47;;;;;;;7.07;4.12;;;;;;;25.81;49.77;99388.47;4361646;32;35793;-83
2022/06/27 05:06:15;;;;;;;8.25;3.58;;;;;;;25.66;50.56;99390.47;4359926;32;34313;-80
2022/06/27 05:08:43;;;;;;;6.18;3.33;;;;;;;26.14;49.70;99392.34;4349906;32;33694;-87
2022/06/27 05:11:11;;;;;;;4.30;2.92;;;;;;;26.22;50.83;99395.25;4350001;32;34035;-86
2022/06/27 05:13:40;;;;;;;5.70;3.00;;;;;;;25.69;49.77;99387.56;4360886;32;35383;-81
2022/06/27 05:16:10;;;;;;;4.70;2.62;;;;;;;25.96;49.87;99393.69;4361616;32;34541;-82
2022/06/27 05:18:39;;;;;;;5.18;3.15;;;;;;;26.20;49.85;99397.19;4361361;32;34456;-79
2022/06/27 05:21:28;;;;;;;7.78;3.20;;;;;;;26.08;50.30;99390.09;4361873;32;34078;-83
2022/06/27 05:23:56;;;;;;;5.82;3.28;;;;;;;26.73;48.29;99387.94;4362670;32;35144;-85
2022/06/27 05:26:24;;;;;;;4.75;3.15;;;;;;;26.75;48.83;99394.00;4360381;32;34735;-80
2022/06/27 05:28:52;;;;;;;8.63;3.35;;;;;;;26.57;48.52;99391.75;4349166;32;34197;-80
2022/06/27 05:31:21;;;;;;;6.78;3.58;;;;;;;26.66;49.64;99396.41;4361298;32;33962;-80
2022/06/27 05:33:48;;;;;;;4.68;3.30;;;;;;;26.82;47.34;99389.88;4361605;32;34949;-81
2022/06/27 05:36:16;;;;;;;4.30;3.03;;;;;;;26.90;46.89;99390.16;4360985;32;34575;-81
2022/06/27 05:38:44;;;;;;;5.00;3.58;;;;;;;27.02;47.84;99391.87;4362897;32;33697;-81
2022/06/27 05:41:12;;;;;;;6.82;3.45;;;;;;;27.16;45.97;99395.25;4361017;32;33767;-80
2022/06/27 05:43:40;;;;;;;5.15;3.42;;;;;;;27.01;46.99;99400.00;4362670;32;35046;-81
2022/06/27 05:46:08;;;;;;;7.85;3.33;;;;;;;26.53;47.69;99400.97;4361170;32;34510;-81
2022/06/27 05:48:40;;;;;;;6.22;3.30;;;;;;;26.98;46.85;99401.06;4362405;32;33688;-81
2022/06/27 05:51:09;;;;;;;5.50;3.30;;;;;;;26.74;47.73;99400.34;4353718;32;33936;-85
2022/06/27 05:53:38;;;;;;;4.72;3.30;;;;;;;26.88;47.74;99400.13;4356561;32;35649;-80
2022/06/27 05:56:06;;;;;;;6.12;3.40;;;;;;;27.69;46.40;99405.34;4362133;32;35337;-80
2022/06/27 05:58:35;;;;;;;7.45;3.87;;;;;;;27.13;46.43;99403.53;4364260;32;33794;-80
2022/06/27 06:01:04;;;;;;;6.25;3.22;;;;;;;27.75;45.24;99400.34;4362760;32;34042;-80
2022/06/27 06:03:33;;;;;;;4.75;3.33;;;;;;;27.82;45.34;99410.56;4364587;32;35781;-80
2022/06/27 06:06:03;;;;;;;4.57;3.03;;;;;;;27.82;44.92;99410.56;4361355;32;34646;-84
2022/06/27 06:08:32;;;;;;;5.32;2.87;;;;;;;27.98;45.50;99416.38;4361651;32;34543;-83
2022/06/27 06:11:00;;;;;;;6.35;3.60;;;;;;;27.94;45.01;99415.78;4360752;32;33946;-83
2022/06/27 06:13:29;;;;;;;6.30;3.20;;;;;;;28.61;45.13;99421.03;4364161;32;35041;-80
2022/06/27 06:15:57;;;;;;;6.28;3.50;;;;;;;29.18;43.20;99425.09;4361748;32;34421;-80
2022/06/27 06:18:27;;;;;;;4.30;3.25;;;;;;;28.99;43.15;99420.44;4364485;32;34598;-81
2022/06/27 06:20:55;;;;;;;4.62;3.03;;;;;;;28.53;44.32;99421.66;4362995;32;33858;-80
2022/06/27 06:23:26;;;;;;;4.80;3.22;;;;;;;29.80;43.72;99417.84;4364364;32;34940;-81
2022/06/27 06:25:54;;;;;;;4.50;3.40;;;;;;;29.98;42.69;99414.50;4348009;32;33022;-82
2022/06/27 06:28:23;;;;;;;6.18;3.15;;;;;;;29.52;43.92;99426.62;4364018;32;33711;-80
2022/06/27 06:30:51;;;;;;;5.53;3.55;;;;;;;29.59;41.95;99428.63;4363014;32;34747;-80
2022/06/27 06:33:19;;;;;;;5.70;3.22;;;;;;;30.28;40.82;99424.25;4364047;32;36027;-80
2022/06/27 06:35:47;;;;;;;5.82;3.60;;;;;;;30.45;39.56;99427.28;4362623;32;35387;-82
2022/06/27 06:38:15;;;;;;;8.82;4.00;;;;;;;31.61;38.83;99425.31;4351844;32;33506;-81
2022/06/27 06:40:43;;;;;;;6.57;3.53;;;;;;;30.62;38.81;99426.56;4358426;32;34740;-82
2022/06/27 06:43:11;;;;;;;8.27;3.97;;;;;;;30.15;39.78;99426.41;4346795;33;35077;-81
2022/06/27 06:45:40;;;;;;;5.57;3.40;;;;;;;30.19;39.26;99427.81;4348484;32;34766;-85
2022/06/27 06:48:09;;;;;;;4.82;3.15;;;;;;;30.51;40.60;99432.06;4345299;33;33703;-82
2022/06/27 06:50:37;;;;;;;12.50;3.70;;;;;;;31.33;37.28;99427.97;4349593;32;33919;-81
2022/06/27 06:53:06;;;;;;;6.97;2.90;;;;;;;30.30;40.13;99433.03;4348622;32;34612;-79
2022/06/27 06:55:34;;;;;;;7.37;3.15;;;;;;;30.56;40.24;99429.81;4345480;33;34943;-80
2022/06/27 06:58:02;;;;;;;7.95;3.20;;;;;;;31.60;36.61;99431.72;4345003;33;33325;-79
2022/06/27 07:00:30;;;;;;;5.62;2.97;;;;;;;30.97;38.00;99430.47;4343916;32;33779;-84
2022/06/27 07:02:59;;;;;;;7.43;3.12;;;;;;;31.03;39.10;99429.91;4362440;32;34603;-80
2022/06/27 07:05:33;;;;;;;4.93;3.35;;;;;;;31.37;39.37;99430.19;4362075;32;34458;-80
2022/06/27 07:08:11;;;;;;;7.72;3.42;;;;;;;31.60;39.85;99429.00;4333963;33;32609;-81
2022/06/27 07:10:40;;;;;;;6.03;3.40;;;;;;;30.97;38.60;99431.34;4334812;32;33586;-80
2022/06/27 07:13:10;;;;;;;6.12;3.20;;;;;;;30.31;39.20;99432.03;4362819;32;34282;-82
2022/06/27 07:15:38;;;;;;;8.35;3.65;;;;;;;31.13;39.44;99428.03;4360866;32;35268;-80
2022/06/27 07:18:13;;;;;;;11.63;3.65;;;;;;;31.37;37.67;99434.75;4363702;32;34494;-81
2022/06/27 07:20:41;;;;;;;5.55;3.35;;;;;;;31.15;40.98;99427.91;4360792;32;33843;-80
2022/06/27 07:23:09;;;;;;;5.75;3.75;;;;;;;31.55;39.00;99426.75;4363660;32;35017;-86
2022/06/27 07:25:37;;;;;;;5.10;3.03;;;;;;;31.55;36.46;99430.31;4361052;32;34562;-84
2022/06/27 07:28:07;;;;;;;16.87;5.90;;;;;;;31.85;38.32;99433.66;4362201;32;34187;-80
2022/06/27 07:30:35;;;;;;;19.20;9.55;;;;;;;32.00;37.61;99441.25;4362452;32;33870;-80
2022/06/27 07:33:03;;;;;;;5.85;3.30;;;;;;;31.45;40.14;99437.56;4337196;32;36070;-82
2022/06/27 07:35:33;;;;;;;12.57;3.70;;;;;;;31.69;36.54;99444.25;4329565;33;35389;-79
2022/06/27 07:38:02;;;;;;;4.12;3.08;;;;;;;30.93;39.25;99438.00;4362476;32;33809;-83
2022/06/27 07:40:33;;;;;;;8.98;3.55;;;;;;;31.75;39.21;99440.97;4360218;32;34753;-84
2022/06/27 07:43:02;;;;;;;7.25;3.40;;;;;;;31.84;38.18;99440.06;4358303;32;34404;-80
2022/06/27 07:45:38;;;;;;;7.53;3.45;;;;;;;32.31;37.82;99445.31;4361732;32;34826;-81
2022/06/27 07:48:06;;;;;;;7.15;4.05;;;;;;;32.54;37.47;99442.13;4362731;32;32961;-82
2022/06/27 07:50:37;;;;;;;7.68;3.33;;;;;;;31.87;37.50;99441.59;4363002;32;33869;-81
2022/06/27 07:53:12;;;;;;;8.00;4.32;;;;;;;32.87;36.35;99450.50;4346984;33;35134;-80
2022/06/27 07:55:46;;;;;;;6.55;3.42;;;;;;;32.44;36.48;99449.47;4347017;33;34403;-81
2022/06/27 07:58:19;;;;;;;4.50;2.87;;;;;;;32.35;37.98;99445.00;4352244;32;34354;-80
2022/06/27 08:00:49;;;;;;;4.30;3.00;;;;;;;32.79;36.77;99453.13;4350804;32;34714;-81
2022/06/27 08:03:36;;;;;;;7.10;3.60;;;;;;;33.27;35.93;99453.66;4333509;33;35126;-81
2022/06/27 08:06:17;;;;;;;5.50;3.15;;;;;;;33.03;34.86;99447.09;4336786;32;34365;-84
2022/06/27 08:08:50;;;;;;;7.72;3.10;;;;;;;33.44;34.79;99455.44;4362832;32;34376;-83
2022/06/27 08:11:23;;;;;;;9.00;3.47;;;;;;;33.73;34.19;99451.56;4358307;32;33230;-84
2022/06/27 08:13:55;;;;;;;7.30;3.08;;;;;;;33.35;36.28;99453.72;4361839;32;34635;-82
2022/06/27 08:16:24;;;;;;;6.10;2.97;;;;;;;33.37;33.68;99457.97;4359534;32;34778;-81
2022/06/27 08:18:53;;;;;;;4.00;2.83;;;;;;;33.50;33.09;99459.37;4361173;32;33269;-80
2022/06/27 08:21:27;;;;;;;4.10;2.95;;;;;;;32.69;34.99;99458.63;4361433;32;34061;-85
2022/06/27 08:23:58;;;;;;;6.75;2.95;;;;;;;33.46;35.40;99466.91;4362890;32;36063;-81
2022/06/27 08:26:28;;;;;;;4.43;3.10;;;;;;;33.92;33.32;99461.22;4357841;32;34585;-86
2022/06/27 08:28:58;;;;;;;4.75;2.90;;;;;;;33.90;34.34;99461.38;4346845;33;33743;-85
2022/06/27 08:31:28;;;;;;;4.32;2.72;;;;;;;34.12;33.38;99468.03;4351744;32;34615;-80
2022/06/27 08:34:01;;;;;;;11.32;2.95;;;;;;;34.46;31.11;99464.41;4357247;32;35174;-79
2022/06/27 08:36:31;;;;;;;5.62;2.85;;;;;;;34.29;30.42;99468.09;4358577;32;34138;-79
2022/06/27 08:39:05;;;;;;;3.53;2.58;;;;;;;34.86;29.43;99462.75;4363292;32;33656;-79
2022/06/27 08:41:34;;;;;;;6.70;3.10;;;;;;;34.04;31.00;99470.72;4360229;32;34303;-80
2022/06/27 08:44:04;;;;;;;5.35;2.83;;;;;;;35.04;29.43;99464.44;4361566;32;35177;-80
2022/06/27 08:46:33;;;;;;;6.55;3.03;;;;;;;34.69;30.14;99463.75;4357216;32;33798;-86
2022/06/27 08:49:04;;;;;;;4.68;3.03;;;;;;;35.22;29.92;99456.97;4360566;32;33794;-88
2022/06/27 08:51:33;;;;;;;5.65;3.40;;;;;;;34.98;30.90;99456.97;4349132;32;34828;-85
2022/06/27 08:54:03;;;;;;;6.07;5.07;;;;;;;34.94;31.39;99459.19;4360931;32;34828;-82
2022/06/27 08:56:31;;;;;;;3.87;2.70;;;;;;;35.18;30.83;99454.75;4348922;32;34382;-87
2022/06/27 08:58:59;;;;;;;3.97;2.65;;;;;;;35.30;30.89;99450.69;4362795;32;33557;-83
2022/06/27 09:01:30;;;;;;;11.63;3.20;;;;;;;34.91;30.16;99457.69;4356611;32;33720;-78
2022/06/27 09:04:06;;;;;;;5.53;2.80;;;;;;;35.86;28.32;99451.50;4358492;32;35026;-78
2022/06/27 09:06:45;;;;;;;4.12;2.55;;;;;;;35.53;31.00;99450.78;4348747;32;34037;-78
2022/06/27 09:09:15;;;;;;;6.60;3.12;;;;;;;34.41;33.16;99439.72;4360103;32;34516;-79
2022/06/27 09:11:46;;;;;;;5.05;2.80;;;;;;;34.29;30.37;99452.75;4354483;32;34633;-79
2022/06/27 09:14:37;;;;;;;6.62;2.45;;;;;;;35.30;29.48;99435.28;4331673;33;35128;-79
2022/06/27 09:17:12;;;;;;;4.57;2.25;;;;;;;35.25;30.59;99443.09;4343978;32;34443;-79
2022/06/27 09:19:53;;;;;;;3.55;2.35;;;;;;;34.70;28.49;99436.56;4360230;32;33589;-80
2022/06/27 09:22:25;;;;;;;6.45;2.70;;;;;;;34.96;30.37;99438.19;4360874;32;35061;-79
2022/06/27 09:25:09;;;;;;;3.53;2.42;;;;;;;35.66;29.38;99434.78;4362419;32;35086;-79
2022/06/27 09:27:46;;;;;;;5.47;2.22;;;;;;;36.30;29.57;99439.22;4361061;32;34460;-80
2022/06/27 09:30:20;;;;;;;3.70;2.42;;;;;;;36.19;28.79;99439.63;4361717;32;33564;-80
2022/06/27 09:32:52;;;;;;;5.12;2.35;;;;;;;36.55;26.34;99433.59;4363253;32;34764;-80
2022/06/27 09:35:26;;;;;;;3.33;2.28;;;;;;;36.05;28.59;99436.66;4362843;32;35805;-81
2022/06/27 09:38:01;;;;;;;8.57;2.62;;;;;;;36.34;27.81;99437.84;4361191;32;34409;-81
2022/06/27 09:40:30;;;;;;;5.60;2.45;;;;;;;35.22;29.60;99431.75;4364349;32;33549;-81
2022/06/27 09:43:06;;;;;;;5.25;2.35;;;;;;;36.15;28.51;99438.31;4360490;32;34047;-80
2022/06/27 09:45:35;;;;;;;4.32;2.00;;;;;;;36.44;27.00;99421.31;4361485;32;35745;-79
2022/06/27 09:48:08;;;;;;;6.57;1.98;;;;;;;36.27;26.79;99422.47;4353153;32;34520;-80
2022/06/27 09:50:40;;;;;;;8.10;2.83;;;;;;;36.51;26.74;99426.88;4349179;33;33582;-79
2022/06/27 09:53:09;;;;;;;6.45;2.37;;;;;;;36.69;26.32;99419.28;4341763;33;34624;-78
2022/06/27 09:55:40;;;;;;;3.58;2.40;;;;;;;35.98;26.56;99422.13;4349125;33;35870;-77
2022/06/27 09:58:09;;;;;;;3.33;2.40;;;;;;;36.05;27.06;99420.38;4346917;33;34512;-86
2022/06/27 10:00:37;;;;;;;5.47;2.20;;;;;;;36.81;28.17;99416.94;4349229;33;33537;-89
2022/06/27 10:03:06;;;;;;;4.40;2.53;;;;;;;36.34;25.75;99416.16;4357525;32;33948;-80
2022/06/27 10:05:43;;;;;;;3.53;2.42;;;;;;;36.93;28.85;99418.19;4362591;32;34694;-79
2022/06/27 10:08:13;;;;;;;3.67;2.20;;;;;;;36.67;24.93;99418.56;4361546;32;34510;-87
2022/06/27 10:11:17;;;;;;;5.40;2.58;;;;;;;36.54;25.34;99412.94;4361999;32;34611;-88
2022/06/27 10:14:16;;;;;;;5.72;2.25;;;;;;;37.07;25.71;99407.53;4317299;33;31810;-86
2022/06/27 10:16:55;;;;;;;5.07;2.42;;;;;;;36.41;26.72;99410.84;4348910;32;34996;-84
2022/06/27 10:19:30;;;;;;;6.20;2.60;;;;;;;36.16;27.52;99400.16;4363168;32;35264;-82
2022/06/27 10:21:58;;;;;;;4.50;2.42;;;;;;;36.84;26.70;99404.91;4361505;32;34669;-86
2022/06/27 10:24:28;;;;;;;3.28;2.47;;;;;;;37.12;29.12;99405.94;4360851;32;34047;-83
2022/06/27 10:27:02;;;;;;;4.25;2.58;;;;;;;36.74;26.93;99405.97;4338346;32;34609;-81
2022/06/27 10:29:45;;;;;;;3.75;2.12;;;;;;;36.57;27.24;99393.59;4363966;32;34201;-87
2022/06/27 10:32:37;;;;;;;6.20;2.42;;;;;;;37.11;26.45;99397.97;4360555;32;33151;-86
2022/06/27 10:35:09;;;;;;;5.97;2.60;;;;;;;36.90;26.49;99406.84;4354644;32;34836;-83
2022/06/27 10:37:40;;;;;;;3.35;2.15;;;;;;;36.70;24.96;99391.13;4361393;32;35051;-81
2022/06/27 10:40:20;;;;;;;8.55;2.80;;;;;;;36.35;26.11;99390.72;4362802;32;33584;-82
2022/06/27 10:42:55;;;;;;;3.37;2.58;;;;;;;35.81;25.77;99393.44;4362336;32;33552;-82
2022/06/27 10:45:26;;;;;;;5.25;2.45;;;;;;;36.55;25.44;99393.78;4362763;32;33828;-81
2022/06/27 10:48:01;;;;;;;4.22;2.22;;;;;;;36.65;25.76;99379.94;4361390;32;33895;-81
2022/06/27 10:50:40;;;;;;;6.07;2.67;;;;;;;36.51;27.24;99383.47;4352121;32;34523;-80
2022/06/27 10:53:29;;;;;;;5.75;2.50;;;;;;;36.84;26.53;99380.47;4358140;32;34404;-82
2022/06/27 10:56:26;;;;;;;3.53;2.20;;;;;;;37.01;24.85;99373.84;4363519;32;34677;-87
2022/06/27 10:58:55;;;;;;;4.62;2.65;;;;;;;37.05;27.42;99367.00;4362760;32;33601;-85
2022/06/27 11:01:24;;;;;;;3.65;2.37;;;;;;;37.53;24.50;99370.16;4362561;32;34470;-83
2022/06/27 11:03:53;;;;;;;6.75;2.80;;;;;;;37.58;26.15;99374.19;4361267;32;34004;-87
2022/06/27 11:06:21;;;;;;;5.60;2.35;;;;;;;37.62;24.42;99375.47;4360929;32;33923;-87
2022/06/27 11:08:52;;;;;;;6.22;2.58;;;;;;;37.46;24.55;99377.38;4362093;32;35009;-87
2022/06/27 11:11:27;;;;;;;3.30;2.53;;;;;;;36.08;28.12;99372.28;4362671;32;33022;-87
2022/06/27 11:13:58;;;;;;;5.75;3.05;;;;;;;35.26;26.88;99358.16;4361179;32;35701;-82
2022/06/27 11:16:31;;;;;;;3.65;2.60;;;;;;;35.29;27.18;99352.38;4363625;32;33510;-87
2022/06/27 11:22:01;;;;;;;4.55;2.42;;;;;;;36.49;24.62;99356.53;4344513;32;34311;-84
2022/06/27 11:24:29;;;;;;;4.47;2.62;;;;;;;36.28;26.40;99346.37;4362390;32;33388;-86
2022/06/27 11:26:57;;;;;;;3.37;1.92;;;;;;;36.43;26.30;99344.53;4362236;32;34123;-81
2022/06/27 11:32:15;;;;;;;6.50;2.62;;;;;;;36.14;26.01;99341.72;4360962;32;34498;-85
2022/06/27 11:34:51;;;;;;;6.90;2.47;;;;;;;36.16;26.34;99337.81;4363906;32;33918;-82
2022/06/27 11:37:22;;;;;;;6.28;2.90;;;;;;;37.32;24.29;99335.63;4362272;32;33904;-84
2022/06/27 11:40:07;;;;;;;6.37;2.42;;;;;;;37.28;23.86;99328.06;4361024;32;34175;-88
2022/06/27 11:42:36;;;;;;;;;;;;;;;36.71;24.14;99341.25;4362402;32;34595;-85
2022/06/27 11:45:09;;;;;;;5.68;2.17;;;;;;;36.96;25.36;99338.28;4361155;32;33588;-87
2022/06/27 11:47:43;;;;;;;3.90;2.30;;;;;;;36.60;25.95;99338.94;4359471;32;34790;-86
2022/06/27 11:50:16;;;;;;;4.60;2.50;;;;;;;37.44;23.93;99335.16;4363462;32;34644;-87
2022/06/27 11:52:49;;;;;;;5.25;2.55;;;;;;;36.54;25.31;99328.84;4361065;32;35344;-79
2022/06/27 11:55:24;;;;;;;6.65;2.83;;;;;;;36.07;25.20;99328.03;4363559;32;33680;-80
2022/06/27 11:57:55;;;;;;;7.30;3.65;;;;;;;36.04;24.90;99328.44;4353652;32;34902;-80
2022/06/27 12:00:25;;;;;;;5.60;2.90;;;;;;;35.99;25.57;99328.97;4362230;32;35094;-83